createdAt,value
2019-05-18T00:01:13.531Z,100811.80
2019-05-18T00:04:01.653Z,100810.43
2019-05-18T00:06:50.045Z,100812.69
2019-05-18T00:09:37.957Z,100801.33
2019-05-18T00:12:25.408Z,100808.76
2019-05-18T00:15:13.466Z,100797.32
2019-05-18T00:18:01.261Z,100797.32
2019-05-18T00:20:49.207Z,100794.33
2019-05-18T00:23:36.870Z,100791.72
2019-05-18T00:26:24.460Z,100794.79
2019-05-18T00:29:12.009Z,100782.58
2019-05-18T00:31:59.828Z,100795.80
2019-05-18T00:34:47.403Z,100791.31
2019-05-18T00:37:34.932Z,100791.31
2019-05-18T00:40:22.706Z,100804.89
2019-05-18T00:43:10.963Z,100802.36
2019-05-18T00:45:58.588Z,100805.09
2019-05-18T00:48:46.268Z,100795.34
2019-05-18T00:51:34.051Z,100795.34
2019-05-18T00:54:22.127Z,100802.89
2019-05-18T00:57:09.703Z,100806.65
2019-05-18T00:59:57.908Z,100793.15
2019-05-18T01:02:45.765Z,100793.15
2019-05-18T01:05:34.171Z,100786.19
2019-05-18T01:08:21.914Z,100780.16
2019-05-18T01:11:09.535Z,100779.73
2019-05-18T01:13:57.778Z,100786.76
2019-05-18T01:16:45.333Z,100790.83
2019-05-18T01:19:33.223Z,100783.45
2019-05-18T01:22:21.428Z,100789.16
2019-05-18T01:25:09.509Z,100785.63
2019-05-18T01:27:57.460Z,100778.34
2019-05-18T01:30:45.308Z,100764.91
2019-05-18T01:33:33.157Z,100770.70
2019-05-18T01:36:20.739Z,100770.70
2019-05-18T01:39:09.103Z,100771.02
2019-05-18T01:41:56.547Z,100771.02
2019-05-18T01:44:44.194Z,100784.23
2019-05-18T01:47:31.835Z,100787.13
2019-05-18T01:50:19.851Z,100784.19
2019-05-18T01:53:07.786Z,100775.45
2019-05-18T01:55:55.508Z,100781.48
2019-05-18T01:58:43.296Z,100781.48
2019-05-18T02:01:30.580Z,100773.63
2019-05-18T02:04:18.093Z,100780.95
2019-05-18T02:07:05.863Z,100768.38
2019-05-18T02:09:53.667Z,100768.38
2019-05-18T02:12:41.515Z,100782.72
2019-05-18T02:15:29.356Z,100782.72
2019-05-18T02:18:28.668Z,100776.61
2019-05-18T02:21:05.948Z,100778.00
2019-05-18T02:23:53.652Z,100776.26
2019-05-18T02:26:41.944Z,100772.30
2019-05-18T02:29:29.410Z,100768.87
2019-05-18T02:32:17.497Z,100771.83
2019-05-18T02:35:05.616Z,100773.62
2019-05-18T02:37:53.060Z,100769.04
2019-05-18T02:40:40.854Z,100769.04
2019-05-18T02:43:28.505Z,100763.93
2019-05-18T02:46:16.274Z,100754.36
2019-05-18T02:49:04.588Z,100767.53
2019-05-18T02:51:52.243Z,100765.87
2019-05-18T02:54:40.055Z,100761.56
2019-05-18T02:57:27.926Z,100766.11
2019-05-18T03:00:15.520Z,100767.00
2019-05-18T03:03:03.380Z,100767.00
2019-05-18T03:05:51.189Z,100767.50
2019-05-18T03:08:38.870Z,100767.50
2019-05-18T03:11:27.193Z,100771.45
2019-05-18T03:14:15.110Z,100771.45
2019-05-18T03:17:03.592Z,100766.58
2019-05-18T03:19:51.160Z,100769.91
2019-05-18T03:22:39.257Z,100769.91
2019-05-18T03:25:27.273Z,100780.04
2019-05-18T03:28:14.914Z,100771.33
2019-05-18T03:31:02.354Z,100772.75
2019-05-18T03:33:50.185Z,100772.75
2019-05-18T03:36:37.955Z,100768.89
2019-05-18T03:39:26.067Z,100779.67
2019-05-18T03:42:13.491Z,100779.67
2019-05-18T03:45:01.313Z,100772.19
2019-05-18T03:47:49.675Z,100776.97
2019-05-18T03:50:37.289Z,100774.70
2019-05-18T03:53:25.236Z,100778.19
2019-05-18T03:56:13.577Z,100774.83
2019-05-18T03:59:01.548Z,100774.83
2019-05-18T04:01:49.583Z,100773.41
2019-05-18T04:04:37.908Z,100784.59
2019-05-18T04:07:25.847Z,100784.59
2019-05-18T04:10:13.671Z,100778.38
2019-05-18T04:13:01.516Z,100773.59
2019-05-18T04:15:49.130Z,100773.59
2019-05-18T04:18:36.996Z,100765.97
2019-05-18T04:21:24.910Z,100765.97
2019-05-18T04:24:13.072Z,100769.27
2019-05-18T04:27:01.000Z,100770.94
2019-05-18T04:29:48.841Z,100772.16
2019-05-18T04:32:36.454Z,100772.16
2019-05-18T04:35:24.465Z,100770.20
2019-05-18T04:38:12.636Z,100769.59
2019-05-18T04:41:00.060Z,100770.20
2019-05-18T04:43:47.934Z,100766.45
2019-05-18T04:46:35.325Z,100766.45
2019-05-18T04:49:22.980Z,100781.09
2019-05-18T04:52:10.689Z,100781.75
2019-05-18T04:54:58.591Z,100781.75
2019-05-18T04:57:46.468Z,100778.34
2019-05-18T05:00:34.739Z,100774.79
2019-05-18T05:03:22.980Z,100780.63
2019-05-18T05:06:11.511Z,100780.63
2019-05-18T05:08:59.296Z,100782.56
2019-05-18T05:11:46.710Z,100765.38
2019-05-18T05:14:34.324Z,100776.47
2019-05-18T05:17:22.049Z,100776.47
2019-05-18T05:20:19.256Z,100768.23
2019-05-18T05:22:57.926Z,100769.84
2019-05-18T05:25:45.882Z,100769.84
2019-05-18T05:28:33.702Z,100769.64
2019-05-18T05:31:21.508Z,100769.64
2019-05-18T05:34:09.060Z,100759.92
2019-05-18T05:36:57.489Z,100761.12
2019-05-18T05:39:44.961Z,100761.91
2019-05-18T05:42:32.564Z,100775.13
2019-05-18T05:45:20.131Z,100765.89
2019-05-18T05:48:07.926Z,100770.02
2019-05-18T05:50:55.927Z,100772.94
2019-05-18T05:53:43.614Z,100771.52
2019-05-18T05:56:31.222Z,100759.28
2019-05-18T05:59:19.077Z,100769.58
2019-05-18T06:02:06.587Z,100773.00
2019-05-18T06:04:54.876Z,100774.24
2019-05-18T06:07:43.072Z,100773.26
2019-05-18T06:10:31.427Z,100775.63
2019-05-18T06:13:18.774Z,100769.63
2019-05-18T06:16:06.455Z,100769.42
2019-05-18T06:18:54.171Z,100768.41
2019-05-18T06:21:45.300Z,100767.87
2019-05-18T06:24:32.970Z,100764.56
2019-05-18T06:27:20.478Z,100767.88
2019-05-18T06:30:08.203Z,100769.88
2019-05-18T06:32:56.452Z,100768.73
2019-05-18T06:35:44.728Z,100775.03
2019-05-18T06:38:32.360Z,100771.01
2019-05-18T06:41:19.892Z,100774.32
2019-05-18T06:44:07.822Z,100770.05
2019-05-18T06:46:55.348Z,100783.09
2019-05-18T06:49:43.038Z,100779.83
2019-05-18T06:52:30.701Z,100779.22
2019-05-18T06:55:18.959Z,100783.30
2019-05-18T06:58:06.316Z,100782.69
2019-05-18T07:00:53.927Z,100789.73
2019-05-18T07:03:44.947Z,100782.64
2019-05-18T07:06:29.233Z,100782.23
2019-05-18T07:09:16.799Z,100784.92
2019-05-18T07:12:04.444Z,100782.20
2019-05-18T07:14:52.883Z,100774.28
2019-05-18T07:17:40.740Z,100772.94
2019-05-18T07:20:28.436Z,100779.65
2019-05-18T07:23:16.684Z,100779.75
2019-05-18T07:26:04.527Z,100778.51
2019-05-18T07:28:52.462Z,100778.11
2019-05-18T07:31:40.224Z,100772.73
2019-05-18T07:34:28.282Z,100784.19
2019-05-18T07:37:15.962Z,100781.08
2019-05-18T07:40:04.840Z,100775.23
2019-05-18T07:42:52.979Z,100772.98
2019-05-18T07:45:41.239Z,100776.20
2019-05-18T07:48:28.936Z,100776.03
2019-05-18T07:51:16.799Z,100775.09
2019-05-18T07:54:04.231Z,100773.09
2019-05-18T07:56:52.582Z,100774.51
2019-05-18T07:59:40.428Z,100779.53
2019-05-18T08:02:28.863Z,100774.66
2019-05-18T08:05:16.505Z,100775.83
2019-05-18T08:08:04.308Z,100780.34
2019-05-18T08:10:52.116Z,100781.80
2019-05-18T08:13:40.582Z,100772.36
2019-05-18T08:16:28.748Z,100773.41
2019-05-18T08:19:16.978Z,100774.66
2019-05-18T08:22:04.738Z,100770.52
2019-05-18T08:24:52.643Z,100768.89
2019-05-18T08:27:40.925Z,100768.81
2019-05-18T08:30:29.055Z,100760.88
2019-05-18T08:33:16.868Z,100761.35
2019-05-18T08:36:05.464Z,100762.91
2019-05-18T08:38:53.136Z,100762.23
2019-05-18T08:41:41.435Z,100771.63
2019-05-18T08:44:29.470Z,100765.52
2019-05-18T08:47:17.196Z,100759.28
2019-05-18T08:50:05.118Z,100756.08
2019-05-18T08:52:52.669Z,100756.95
2019-05-18T08:55:40.488Z,100754.77
2019-05-18T08:58:28.957Z,100763.29
2019-05-18T09:01:17.130Z,100758.06
2019-05-18T09:04:05.289Z,100765.14
2019-05-18T09:06:53.643Z,100760.20
2019-05-18T09:09:41.926Z,100762.57
2019-05-18T09:12:29.574Z,100763.64
2019-05-18T09:15:17.299Z,100756.23
2019-05-18T09:18:05.535Z,100762.27
2019-05-18T09:20:53.776Z,100759.57
2019-05-18T09:23:41.177Z,100761.37
2019-05-18T09:26:28.730Z,100753.97
2019-05-18T09:29:16.764Z,100758.23
2019-05-18T09:32:04.915Z,100751.54
2019-05-18T09:34:53.251Z,100750.27
2019-05-18T09:37:40.844Z,100750.91
2019-05-18T09:40:29.023Z,100756.28
2019-05-18T09:43:17.393Z,100754.07
2019-05-18T09:46:05.332Z,100745.98
2019-05-18T09:48:52.948Z,100749.50
2019-05-18T09:51:40.796Z,100747.13
2019-05-18T09:54:28.818Z,100740.38
2019-05-18T09:57:16.359Z,100738.98
2019-05-18T10:00:04.580Z,100733.25
2019-05-18T10:02:52.084Z,100738.75
2019-05-18T10:05:40.474Z,100733.47
2019-05-18T10:08:28.217Z,100733.58
2019-05-18T10:11:15.945Z,100721.56
2019-05-18T10:14:04.001Z,100722.98
2019-05-18T10:16:51.696Z,100726.20
2019-05-18T10:19:39.246Z,100728.44
2019-05-18T10:22:27.474Z,100721.22
2019-05-18T10:25:15.117Z,100723.20
2019-05-18T10:28:02.766Z,100721.14
2019-05-18T10:30:50.675Z,100720.38
2019-05-18T10:33:38.323Z,100715.48
2019-05-18T10:36:26.678Z,100721.59
2019-05-18T10:39:14.616Z,100716.24
2019-05-18T10:42:02.432Z,100710.80
2019-05-18T10:44:49.867Z,100712.84
2019-05-18T10:47:38.016Z,100710.28
2019-05-18T10:50:25.634Z,100699.59
2019-05-18T10:53:27.431Z,100696.55
2019-05-18T10:56:00.479Z,100696.70
2019-05-18T10:58:48.634Z,100704.33
2019-05-18T11:01:37.001Z,100698.73
2019-05-18T11:04:24.751Z,100689.72
2019-05-18T11:07:12.144Z,100693.77
2019-05-18T11:10:00.036Z,100694.66
2019-05-18T11:12:48.454Z,100682.91
2019-05-18T11:15:36.156Z,100687.81
2019-05-18T11:18:23.844Z,100686.05
2019-05-18T11:21:11.614Z,100682.72
2019-05-18T11:23:59.060Z,100681.67
2019-05-18T11:26:47.406Z,100687.63
2019-05-18T11:29:34.914Z,100687.72
2019-05-18T11:32:22.966Z,100680.20
2019-05-18T11:35:10.742Z,100679.98
2019-05-18T11:37:59.010Z,100679.85
2019-05-18T11:40:47.127Z,100678.06
2019-05-18T11:43:34.950Z,100684.81
2019-05-18T11:46:22.632Z,100690.03
2019-05-18T11:49:10.406Z,100685.36
2019-05-18T11:51:58.320Z,100682.16
2019-05-18T11:54:46.686Z,100681.75
2019-05-18T11:57:34.412Z,100686.44
2019-05-18T12:00:22.610Z,100678.96
2019-05-18T12:03:10.293Z,100678.93
2019-05-18T12:05:58.132Z,100676.78
2019-05-18T12:08:46.064Z,100679.12
2019-05-18T12:11:33.702Z,100674.75
2019-05-18T12:14:21.228Z,100675.19
2019-05-18T12:17:09.261Z,100681.19
2019-05-18T12:19:56.696Z,100681.23
2019-05-18T12:22:44.466Z,100670.85
2019-05-18T12:25:32.376Z,100668.86
2019-05-18T12:28:20.180Z,100667.20
2019-05-18T12:31:07.520Z,100663.23
2019-05-18T12:33:55.242Z,100675.66
2019-05-18T12:36:43.405Z,100674.42
2019-05-18T12:39:31.240Z,100669.14
2019-05-18T12:42:18.862Z,100662.45
2019-05-18T12:45:06.503Z,100667.13
2019-05-18T12:47:54.424Z,100659.72
2019-05-18T12:50:42.199Z,100660.20
2019-05-18T12:53:30.301Z,100653.28
2019-05-18T12:56:18.473Z,100657.00
2019-05-18T12:59:06.478Z,100663.23
2019-05-18T13:01:54.778Z,100654.15
2019-05-18T13:04:43.101Z,100650.30
2019-05-18T13:07:31.428Z,100649.34
2019-05-18T13:10:19.222Z,100651.38
2019-05-18T13:13:07.100Z,100641.67
2019-05-18T13:15:54.487Z,100640.06
2019-05-18T13:18:42.456Z,100646.78
2019-05-18T13:21:30.723Z,100645.41
2019-05-18T13:24:19.040Z,100644.31
2019-05-18T13:27:07.005Z,100641.39
2019-05-18T13:29:54.687Z,100637.13
2019-05-18T13:32:42.358Z,100637.10
2019-05-18T13:35:30.314Z,100631.81
2019-05-18T13:38:18.531Z,100634.89
2019-05-18T13:41:06.180Z,100640.90
2019-05-18T13:43:53.899Z,100638.89
2019-05-18T13:46:41.784Z,100634.45
2019-05-18T13:49:29.377Z,100633.17
2019-05-18T13:52:17.153Z,100634.54
2019-05-18T13:55:05.313Z,100635.91
2019-05-18T13:57:52.539Z,100636.52
2019-05-18T14:00:40.069Z,100634.06
2019-05-18T14:03:28.263Z,100635.69
2019-05-18T14:06:16.094Z,100638.47
2019-05-18T14:09:05.434Z,100634.32
2019-05-18T14:11:53.721Z,100637.84
2019-05-18T14:14:41.384Z,100619.45
2019-05-18T14:17:28.943Z,100633.61
2019-05-18T14:20:16.689Z,100632.78
2019-05-18T14:23:04.751Z,100624.88
2019-05-18T14:25:52.655Z,100628.89
2019-05-18T14:28:40.866Z,100630.84
2019-05-18T14:31:29.082Z,100630.13
2019-05-18T14:34:16.596Z,100637.80
2019-05-18T14:37:04.131Z,100634.17
2019-05-18T14:39:52.298Z,100632.25
2019-05-18T14:42:40.238Z,100633.21
2019-05-18T14:45:27.828Z,100638.56
2019-05-18T14:48:15.437Z,100636.82
2019-05-18T14:51:03.392Z,100633.20
2019-05-18T14:53:50.939Z,100626.31
2019-05-18T14:56:39.037Z,100627.99
2019-05-18T14:59:26.695Z,100628.74
2019-05-18T15:02:14.640Z,100632.73
2019-05-18T15:05:02.463Z,100632.70
2019-05-18T15:07:50.161Z,100633.00
2019-05-18T15:10:37.621Z,100623.78
2019-05-18T15:13:25.559Z,100618.84
2019-05-18T15:16:13.094Z,100615.47
2019-05-18T15:19:00.645Z,100614.66
2019-05-18T15:21:48.566Z,100607.53
2019-05-18T15:24:36.894Z,100616.02
2019-05-18T15:27:24.699Z,100611.45
2019-05-18T15:30:12.262Z,100605.95
2019-05-18T15:33:00.569Z,100603.08
2019-05-18T15:35:48.812Z,100604.94
2019-05-18T15:38:36.526Z,100607.55
2019-05-18T15:41:23.916Z,100614.22
2019-05-18T15:44:11.565Z,100610.06
2019-05-18T15:46:59.902Z,100605.88
2019-05-18T15:49:47.647Z,100614.20
2019-05-18T15:52:35.824Z,100611.36
2019-05-18T15:55:23.441Z,100616.19
2019-05-18T15:58:11.072Z,100607.02
2019-05-18T16:00:58.973Z,100611.36
2019-05-18T16:03:47.150Z,100602.64
2019-05-18T16:06:35.081Z,100608.17
2019-05-18T16:09:22.926Z,100608.14
2019-05-18T16:12:10.431Z,100616.08
2019-05-18T16:14:58.459Z,100611.20
2019-05-18T16:17:46.309Z,100608.00
2019-05-18T16:20:34.352Z,100605.09
2019-05-18T16:23:22.600Z,100593.08
2019-05-18T16:26:21.069Z,100595.07
2019-05-18T16:28:58.760Z,100597.22
2019-05-18T16:31:46.277Z,100594.08
2019-05-18T16:34:34.057Z,100589.64
2019-05-18T16:37:21.762Z,100587.03
2019-05-18T16:40:09.608Z,100585.33
2019-05-18T16:42:57.049Z,100581.73
2019-05-18T16:45:44.646Z,100584.96
2019-05-18T16:48:32.670Z,100584.96
2019-05-18T16:51:20.847Z,100583.52
2019-05-18T16:54:08.316Z,100582.62
2019-05-18T16:56:56.503Z,100587.87
2019-05-18T16:59:44.327Z,100582.47
2019-05-18T17:02:32.277Z,100586.53
2019-05-18T17:05:19.724Z,100586.14
2019-05-18T17:08:07.330Z,100588.16
2019-05-18T17:10:55.278Z,100585.30
2019-05-18T17:13:43.630Z,100581.83
2019-05-18T17:16:31.754Z,100578.39
2019-05-18T17:19:19.106Z,100583.52
2019-05-18T17:22:06.711Z,100583.05
2019-05-18T17:24:54.391Z,100582.27
2019-05-18T17:27:41.782Z,100582.64
2019-05-18T17:30:30.041Z,100580.51
2019-05-18T17:33:18.170Z,100580.73
2019-05-18T17:36:06.011Z,100580.64
2019-05-18T17:38:53.546Z,100579.01
2019-05-18T17:41:41.461Z,100586.63
2019-05-18T17:44:29.167Z,100582.53
2019-05-18T17:47:16.841Z,100589.25
2019-05-18T17:50:05.492Z,100590.54
2019-05-18T17:52:53.436Z,100594.91
2019-05-18T17:55:41.286Z,100593.07
2019-05-18T17:58:29.136Z,100588.97
2019-05-18T18:01:16.730Z,100593.02
2019-05-18T18:04:04.427Z,100588.03
2019-05-18T18:06:53.025Z,100594.21
2019-05-18T18:09:40.578Z,100595.33
2019-05-18T18:12:28.035Z,100596.40
2019-05-18T18:15:16.024Z,100600.41
2019-05-18T18:18:04.456Z,100598.64
2019-05-18T18:20:52.313Z,100596.56
2019-05-18T18:23:40.569Z,100598.72
2019-05-18T18:26:28.700Z,100605.07
2019-05-18T18:29:16.782Z,100602.47
2019-05-18T18:32:04.663Z,100607.70
2019-05-18T18:34:52.199Z,100608.17
2019-05-18T18:37:39.936Z,100610.57
2019-05-18T18:40:28.294Z,100605.56
2019-05-18T18:43:15.699Z,100619.05
2019-05-18T18:46:03.282Z,100612.39
2019-05-18T18:48:51.331Z,100613.44
2019-05-18T18:51:39.135Z,100618.03
2019-05-18T18:54:26.648Z,100618.03
2019-05-18T18:57:14.481Z,100612.38
2019-05-18T19:00:02.115Z,100616.47
2019-05-18T19:02:49.845Z,100622.08
2019-05-18T19:05:37.774Z,100625.44
2019-05-18T19:08:25.381Z,100629.87
2019-05-18T19:11:13.121Z,100624.61
2019-05-18T19:14:01.168Z,100626.84
2019-05-18T19:16:48.933Z,100631.38
2019-05-18T19:19:39.858Z,100627.10
2019-05-18T19:22:24.475Z,100622.58
2019-05-18T19:25:12.293Z,100627.68
2019-05-18T19:27:59.622Z,100629.22
2019-05-18T19:30:47.473Z,100634.66
2019-05-18T19:33:35.716Z,100637.81
2019-05-18T19:36:23.247Z,100639.70
2019-05-18T19:39:11.051Z,100646.02
2019-05-18T19:41:59.196Z,100642.89
2019-05-18T19:44:47.318Z,100652.70
2019-05-18T19:47:35.230Z,100652.16
2019-05-18T19:50:23.364Z,100658.75
2019-05-18T19:53:11.591Z,100656.75
2019-05-18T19:55:59.344Z,100657.05
2019-05-18T19:58:50.397Z,100659.64
2019-05-18T20:01:38.391Z,100654.95
2019-05-18T20:04:26.022Z,100653.52
2019-05-18T20:07:13.535Z,100652.94
2019-05-18T20:10:01.849Z,100656.02
2019-05-18T20:12:49.738Z,100652.34
2019-05-18T20:15:37.329Z,100663.86
2019-05-18T20:18:25.203Z,100658.45
2019-05-18T20:21:13.606Z,100659.73
2019-05-18T20:24:01.407Z,100653.89
2019-05-18T20:26:49.529Z,100650.31
2019-05-18T20:29:37.126Z,100655.11
2019-05-18T20:32:25.611Z,100654.20
2019-05-18T20:35:13.643Z,100661.20
2019-05-18T20:38:01.531Z,100653.59
2019-05-18T20:40:49.721Z,100654.50
2019-05-18T20:43:37.543Z,100661.61
2019-05-18T20:46:24.890Z,100664.79
2019-05-18T20:49:12.210Z,100659.46
2019-05-18T20:52:00.448Z,100658.74
2019-05-18T20:54:48.693Z,100660.70
2019-05-18T20:57:36.468Z,100662.05
2019-05-18T21:00:24.163Z,100661.48
2019-05-18T21:03:12.018Z,100661.49
2019-05-18T21:06:00.238Z,100664.00
2019-05-18T21:08:47.807Z,100660.77
2019-05-18T21:11:35.814Z,100663.03
2019-05-18T21:14:23.505Z,100666.31
2019-05-18T21:17:11.060Z,100660.20
2019-05-18T21:19:58.790Z,100663.75
2019-05-18T21:22:46.357Z,100663.48
2019-05-18T21:25:34.078Z,100662.51
2019-05-18T21:28:21.650Z,100665.00
2019-05-18T21:31:09.652Z,100668.16
2019-05-18T21:33:57.461Z,100671.02
2019-05-18T21:36:45.753Z,100669.11
2019-05-18T21:39:33.801Z,100670.16
2019-05-18T21:42:21.421Z,100670.23
2019-05-18T21:45:09.059Z,100671.68
2019-05-18T21:47:57.463Z,100665.36
2019-05-18T21:50:44.948Z,100664.98
2019-05-18T21:53:32.647Z,100663.28
2019-05-18T21:56:20.407Z,100665.74
2019-05-18T21:59:11.908Z,100666.98
2019-05-18T22:01:56.315Z,100663.84
2019-05-18T22:04:43.844Z,100662.70
2019-05-18T22:07:31.605Z,100659.62
2019-05-18T22:10:25.688Z,100660.45
2019-05-18T22:13:07.109Z,100665.13
2019-05-18T22:15:55.398Z,100667.57
2019-05-18T22:18:43.159Z,100670.58
2019-05-18T22:21:31.065Z,100665.54
2019-05-18T22:24:18.726Z,100666.36
2019-05-18T22:27:06.441Z,100668.43
2019-05-18T22:29:54.327Z,100668.80
2019-05-18T22:32:42.525Z,100663.35
2019-05-18T22:35:30.265Z,100667.23
2019-05-18T22:38:18.038Z,100668.34
2019-05-18T22:41:06.320Z,100675.66
2019-05-18T22:43:54.188Z,100664.88
2019-05-18T22:46:41.751Z,100670.09
2019-05-18T22:49:29.447Z,100664.64
2019-05-18T22:52:17.484Z,100660.89
2019-05-18T22:55:05.294Z,100658.89
2019-05-18T22:57:53.560Z,100658.39
2019-05-18T23:00:41.281Z,100664.34
2019-05-18T23:03:29.449Z,100664.92
2019-05-18T23:06:17.158Z,100654.04
2019-05-18T23:09:06.525Z,100657.36
2019-05-18T23:11:54.765Z,100659.72
2019-05-18T23:14:42.328Z,100655.80
2019-05-18T23:17:30.271Z,100660.55
2019-05-18T23:20:17.874Z,100657.17
2019-05-18T23:23:05.825Z,100657.82
2019-05-18T23:25:53.552Z,100659.80
2019-05-18T23:28:41.041Z,100658.64
2019-05-18T23:31:29.024Z,100657.08
2019-05-18T23:34:16.760Z,100663.52
2019-05-18T23:37:04.889Z,100654.76
2019-05-18T23:39:53.091Z,100652.30
2019-05-18T23:42:41.091Z,100655.06
2019-05-18T23:45:28.564Z,100651.79
2019-05-18T23:48:16.763Z,100648.41
2019-05-18T23:51:04.551Z,100654.00
2019-05-18T23:53:53.915Z,100650.18
2019-05-18T23:56:40.979Z,100646.97
2019-05-18T23:59:28.450Z,100646.78
